Barranquilla, Colombia

8:10 AM COT en Noviembre 01, 2014 (GMT -0500)
Ernesto Cortissoz | Change Station
CLOSE
Current Station
Aeropuerto
Location: Barranquilla,
Altura: 98 ft
Estaciones meteorológicas cercanas

Alt 98 ft 10.88 °N, 74.78 °W | Updated 10 minutes ago

Scattered Clouds
Nubes dispersas
77 ° F
Sensación térmica 77 ° F
N
7
Viento Variable Viento desde Este

Hoy
Alta -- | Baja -- ° F
--% Posibilidad de precipitaciones
Ayer
Alta -- | Baja -- ° F
Precip. -- pul
5:50 AM 5:34 PM
Gibosa creciente, 66% visible
Presión 29.94 pul
Visibilidad 3.1 Millas
Nubes Muy nublado 1000 ft
Nubes dispersas 20000 ft
Punto de rocío 77 ° F
Humedad 100%
Precipitaciones 0.00 pul
Espesor de la nieve No disponible.
UV 3 de una escala de 12
Polen No disponible.
Calidad del aire No disponible.
Flu Activity No disponible.
METAR SKBQ 011300Z 09006KT 5000 BR BKN010 SCT200 25/25 A2994 RMK AD OPR IMC

More Conditions Fewer Conditions

Presión 29.94 pul
Visibilidad 3.1 Millas
Nubes Muy nublado 1000 ft
Nubes dispersas 20000 ft
Punto de rocío 77 ° F
Humedad 100%
Precipitaciones 0.00 pul
Espesor de la nieve No disponible.
UV 3 de una escala de 12
Polen No disponible.
Calidad del aire No disponible.
Flu Activity No disponible.
METAR SKBQ 011300Z 09006KT 5000 BR BKN010 SCT200 25/25 A2994 RMK AD OPR IMC

More Conditions Fewer Conditions

10-Day Weather Forecast

Almanac

Astronomía

Nov. 01, 2014 Salida Puesta
Hora real
Crepúsculo civil
Crepúsculo náutico
Crepúsculo astronómico
Luna
Horas de luz
Horas de luz
Tomorrow will be .
, % of the Moon is Illuminated

Extremos de hoy

Máximos del país Bajas del país

Community

WunderPhotos

Upload Photos

1,766,921 ¡fotos cargadas!

WunderBlogs® & News

Nearby

Calidad del aire

  Calidad del aire Índice AQ Contaminante
Not available.

Grosos de nieve

Estación Profundido Altura

Actividad de terremotos

Ciudad Distance Mag. Tiempo y dato
Magnitud mínima muestra es 2,5.

Temperaturas de aguas costeras

Lugar Temperatura

Estaciones meteorológicas cercanas